Time;durP1;ratioP1;P1;durP2;ratioP2;P2;SDS_P1;SDS_P2;PMS_P1;PMS_P2;Temp;Humidity;BMP_temperature;BMP_pressure;BME280_temperature;BME280_humidity;BME280_pressure;Samples;Min_cycle;Max_cycle;Signal;HPM_P1;HPM_P2
2021/04/02 00:02:23;;;;;;;6.53;2.57;;;5.00;99.90;;;;;;5014506;28;20314;-77
2021/04/02 00:04:49;;;;;;;7.70;2.63;;;4.90;99.90;;;;;;5001693;28;20265;-77
2021/04/02 00:07:17;;;;;;;6.07;2.40;;;4.90;99.90;;;;;;5001108;28;20211;-77
2021/04/02 00:09:43;;;;;;;8.93;2.50;;;4.90;99.90;;;;;;5013782;28;20237;-77
2021/04/02 00:12:10;;;;;;;8.20;2.73;;;4.90;99.90;;;;;;5021191;28;20213;-76
2021/04/02 00:14:37;;;;;;;8.23;3.30;;;5.00;99.90;;;;;;5019937;28;20601;-77
2021/04/02 00:17:04;;;;;;;15.00;3.70;;;5.00;99.90;;;;;;5024094;28;20206;-78
2021/04/02 00:19:30;;;;;;;9.60;3.40;;;5.00;99.90;;;;;;5024518;28;20265;-77
2021/04/02 00:21:56;;;;;;;11.77;3.13;;;5.00;99.90;;;;;;5024053;28;20237;-77
2021/04/02 00:24:23;;;;;;;9.27;2.97;;;4.90;99.90;;;;;;5023005;28;20265;-77
2021/04/02 00:26:49;;;;;;;14.10;3.53;;;4.90;99.90;;;;;;5025018;28;20764;-76
2021/04/02 00:29:16;;;;;;;9.33;3.20;;;4.90;99.90;;;;;;5024867;28;20796;-77
2021/04/02 00:31:42;;;;;;;7.00;3.03;;;5.00;99.90;;;;;;5011218;28;20211;-76
2021/04/02 00:34:08;;;;;;;13.00;3.10;;;5.00;99.90;;;;;;5005650;28;20199;-76
2021/04/02 00:36:35;;;;;;;8.00;3.20;;;5.00;99.90;;;;;;5004737;28;20199;-76
2021/04/02 00:39:01;;;;;;;10.40;3.93;;;5.10;99.90;;;;;;5010129;28;20338;-77
2021/04/02 00:41:29;;;;;;;10.40;3.57;;;5.10;99.90;;;;;;5023947;28;20222;-77
2021/04/02 00:43:55;;;;;;;10.63;3.27;;;5.10;99.90;;;;;;5023105;28;20270;-77
2021/04/02 00:46:23;;;;;;;10.57;3.23;;;5.20;99.90;;;;;;5023224;28;20213;-77
2021/04/02 00:48:50;;;;;;;8.70;3.33;;;5.20;99.90;;;;;;5023897;28;20206;-77
2021/04/02 00:51:21;;;;;;;10.27;3.60;;;5.20;99.90;;;;;;5023472;28;20199;-77
2021/04/02 00:53:49;;;;;;;8.70;3.13;;;5.20;99.90;;;;;;5004199;28;20204;-77
2021/04/02 00:56:16;;;;;;;11.07;3.83;;;5.20;99.90;;;;;;5016161;28;20657;-77
2021/04/02 00:58:44;;;;;;;8.87;4.03;;;5.30;99.90;;;;;;5023114;28;20199;-77
2021/04/02 01:01:12;;;;;;;11.93;3.43;;;5.30;99.90;;;;;;5022868;28;20230;-77
2021/04/02 01:03:39;;;;;;;11.73;3.33;;;5.30;99.90;;;;;;5022239;28;20215;-76
2021/04/02 01:06:09;;;;;;;8.57;2.93;;;5.30;99.90;;;;;;5024281;28;20202;-76
2021/04/02 01:08:37;;;;;;;9.80;3.10;;;5.20;99.90;;;;;;5041106;28;20505;-76
2021/04/02 01:11:06;;;;;;;10.90;3.37;;;5.20;99.90;;;;;;5043429;28;20198;-76
2021/04/02 01:13:37;;;;;;;8.43;3.50;;;5.20;99.90;;;;;;5029383;28;20796;-76
2021/04/02 01:16:09;;;;;;;9.90;2.93;;;5.20;99.90;;;;;;5023750;28;20207;-76
2021/04/02 01:18:40;;;;;;;8.13;3.40;;;5.20;99.90;;;;;;5022979;28;20210;-76
2021/04/02 01:21:13;;;;;;;7.93;3.20;;;5.20;99.90;;;;;;5024075;28;20213;-77
2021/04/02 01:23:46;;;;;;;12.40;3.80;;;5.10;99.90;;;;;;5023776;28;20199;-76
2021/04/02 01:26:23;;;;;;;10.40;2.83;;;5.10;99.90;;;;;;5022512;28;20676;-76
2021/04/02 01:29:12;;;;;;;11.63;3.77;;;5.00;99.90;;;;;;5022798;28;20473;-78
2021/04/02 01:31:41;;;;;;;8.20;3.10;;;4.90;99.90;;;;;;5023071;28;20210;-76
2021/04/02 01:34:09;;;;;;;13.27;3.70;;;5.00;99.90;;;;;;5023434;28;20225;-75
2021/04/02 01:36:40;;;;;;;13.20;4.13;;;5.00;99.90;;;;;;5014459;28;20322;-76
2021/04/02 01:39:09;;;;;;;6.90;2.70;;;5.00;99.90;;;;;;5015467;28;20594;-76
2021/04/02 01:41:39;;;;;;;10.80;3.60;;;5.00;99.90;;;;;;5023079;28;20649;-75
2021/04/02 01:44:06;;;;;;;16.40;4.43;;;5.00;99.90;;;;;;5023380;28;20195;-76
2021/04/02 01:46:36;;;;;;;9.10;3.30;;;5.00;99.90;;;;;;5022024;28;20218;-78
2021/04/02 01:49:05;;;;;;;12.37;3.63;;;5.00;99.90;;;;;;5023639;28;20276;-76
2021/04/02 01:51:32;;;;;;;9.13;2.70;;;5.00;99.90;;;;;;5023310;28;20225;-76
2021/04/02 01:54:01;;;;;;;11.17;3.30;;;4.90;99.90;;;;;;5023055;28;20791;-76
2021/04/02 01:56:29;;;;;;;10.27;3.33;;;4.90;99.90;;;;;;5021952;28;20242;-75
2021/04/02 01:58:57;;;;;;;8.43;3.60;;;4.90;99.90;;;;;;5023282;28;20606;-75
2021/04/02 02:01:29;;;;;;;16.73;4.50;;;4.80;99.90;;;;;;5021770;28;20226;-76
2021/04/02 02:03:58;;;;;;;6.17;2.80;;;4.80;99.90;;;;;;5022931;28;20214;-76
2021/04/02 02:06:25;;;;;;;13.40;3.10;;;4.80;99.90;;;;;;5022508;28;20202;-76
2021/04/02 02:08:53;;;;;;;9.20;3.33;;;4.80;99.90;;;;;;5043561;28;20241;-75
2021/04/02 02:11:20;;;;;;;11.57;3.20;;;4.80;99.90;;;;;;5022559;28;20214;-76
2021/04/02 02:13:51;;;;;;;8.83;3.00;;;4.80;99.90;;;;;;5022527;28;20206;-76
2021/04/02 02:16:19;;;;;;;9.03;3.27;;;4.70;99.90;;;;;;5005309;28;20226;-76
2021/04/02 02:18:50;;;;;;;6.10;2.70;;;4.70;99.90;;;;;;5002760;28;20211;-77
2021/04/02 02:21:18;;;;;;;8.60;2.80;;;4.70;99.90;;;;;;5002426;28;20233;-76
2021/04/02 02:23:45;;;;;;;9.33;2.87;;;4.80;99.90;;;;;;5002691;28;20195;-77
2021/04/02 02:26:11;;;;;;;11.33;3.40;;;4.80;99.90;;;;;;5020669;28;20679;-77
2021/04/02 02:28:38;;;;;;;11.10;2.50;;;4.80;99.90;;;;;;5022361;28;20210;-76
2021/04/02 02:31:05;;;;;;;18.80;3.80;;;4.80;99.90;;;;;;5021977;28;21267;-77
2021/04/02 02:33:31;;;;;;;7.07;2.60;;;4.80;99.90;;;;;;5022085;28;20995;-76
2021/04/02 02:35:59;;;;;;;10.30;2.60;;;4.80;99.90;;;;;;5021927;28;20191;-77
2021/04/02 02:38:27;;;;;;;11.40;2.73;;;4.70;99.90;;;;;;5021310;28;20203;-77
2021/04/02 02:40:54;;;;;;;7.03;2.40;;;4.80;99.90;;;;;;5022119;28;20292;-77
2021/04/02 02:43:20;;;;;;;9.50;2.43;;;4.80;99.90;;;;;;5021138;28;20503;-76
2021/04/02 02:53:05;;;;;;;9.60;2.17;;;4.70;99.90;;;;;;4959338;28;20852;-78
2021/04/02 02:55:34;;;;;;;9.60;4.17;;;4.80;99.90;;;;;;5024086;28;20239;-78
2021/04/02 02:58:02;;;;;;;6.07;2.07;;;4.80;99.90;;;;;;5020711;28;20210;-78
2021/04/02 03:00:33;;;;;;;8.97;2.93;;;4.80;99.90;;;;;;5022124;28;20256;-78
2021/04/02 03:03:04;;;;;;;8.27;1.87;;;4.80;99.90;;;;;;5021398;28;20206;-76
2021/04/02 03:05:31;;;;;;;6.97;2.23;;;4.80;99.90;;;;;;5021652;28;20198;-76
2021/04/02 03:08:01;;;;;;;7.97;2.40;;;4.80;99.90;;;;;;5033803;28;20217;-76
2021/04/02 03:10:30;;;;;;;6.67;1.80;;;4.80;99.90;;;;;;5040589;28;20201;-77
2021/04/02 03:12:59;;;;;;;6.90;2.40;;;4.80;99.90;;;;;;5040712;28;20212;-76
2021/04/02 03:15:28;;;;;;;9.57;2.17;;;4.90;99.90;;;;;;5031479;28;20625;-76
2021/04/02 03:17:57;;;;;;;11.50;3.60;;;4.90;99.90;;;;;;5020410;28;20662;-76
2021/04/02 03:20:25;;;;;;;6.83;2.10;;;4.90;99.90;;;;;;5021426;28;20206;-77
2021/04/02 03:22:52;;;;;;;8.47;2.57;;;4.80;99.90;;;;;;5012070;28;20227;-76
2021/04/02 03:25:21;;;;;;;8.33;2.30;;;4.80;99.90;;;;;;5003036;28;20203;-76
2021/04/02 03:27:49;;;;;;;5.93;1.97;;;4.90;99.90;;;;;;5003133;28;20211;-77
2021/04/02 03:30:18;;;;;;;7.80;2.20;;;4.80;99.90;;;;;;5002485;28;20513;-77
2021/04/02 03:32:50;;;;;;;11.40;3.17;;;4.80;99.90;;;;;;5015894;28;20206;-77
2021/04/02 03:35:18;;;;;;;10.03;2.53;;;4.90;99.90;;;;;;5020649;28;20881;-77
2021/04/02 03:37:49;;;;;;;10.70;2.60;;;4.90;99.90;;;;;;5020915;28;20657;-77
2021/04/02 03:40:17;;;;;;;7.93;2.40;;;4.80;99.90;;;;;;5020563;28;20222;-77
2021/04/02 03:42:47;;;;;;;12.23;2.73;;;4.80;99.90;;;;;;5021707;28;20650;-77
2021/04/02 03:45:15;;;;;;;5.90;2.10;;;4.80;99.90;;;;;;5020060;28;20774;-78
2021/04/02 03:47:45;;;;;;;7.00;2.20;;;4.90;99.90;;;;;;5021369;28;20680;-76
2021/04/02 03:50:15;;;;;;;6.63;1.90;;;4.90;99.90;;;;;;5020763;28;20198;-77
2021/04/02 03:52:44;;;;;;;10.00;2.20;;;5.00;99.90;;;;;;5019924;28;20229;-77
2021/04/02 03:55:16;;;;;;;15.23;3.37;;;5.00;99.90;;;;;;5007887;28;20218;-77
2021/04/02 03:57:45;;;;;;;6.23;2.67;;;5.10;99.90;;;;;;5001263;28;20205;-76
2021/04/02 04:00:19;;;;;;;5.53;2.37;;;5.00;99.90;;;;;;5001031;28;20207;-77
2021/04/02 04:02:48;;;;;;;7.33;2.30;;;5.10;99.90;;;;;;5021002;28;20317;-77
2021/04/02 04:05:17;;;;;;;7.30;2.47;;;5.10;99.90;;;;;;5020890;28;20198;-77
2021/04/02 04:07:46;;;;;;;5.40;2.20;;;5.10;99.90;;;;;;5030992;28;20220;-78
2021/04/02 04:10:15;;;;;;;5.87;2.20;;;5.10;99.90;;;;;;5035451;28;20190;-77
2021/04/02 04:12:42;;;;;;;7.93;2.30;;;5.20;99.90;;;;;;5020798;28;20198;-78
2021/04/02 04:15:11;;;;;;;13.23;2.30;;;5.20;99.90;;;;;;5006253;28;20214;-77
2021/04/02 04:17:39;;;;;;;9.17;2.50;;;5.20;99.90;;;;;;5008054;28;20213;-76
2021/04/02 04:20:09;;;;;;;6.90;2.40;;;5.20;99.90;;;;;;5020307;28;20211;-77
2021/04/02 04:22:37;;;;;;;8.93;2.90;;;5.30;99.90;;;;;;5020636;28;20880;-77
2021/04/02 04:25:07;;;;;;;5.97;2.40;;;5.30;99.90;;;;;;5020560;28;20264;-76
2021/04/02 04:27:35;;;;;;;7.23;2.00;;;5.40;99.90;;;;;;5004682;28;20211;-77
2021/04/02 04:30:04;;;;;;;9.80;2.70;;;5.40;99.90;;;;;;5001266;28;20202;-77
2021/04/02 04:32:32;;;;;;;13.73;2.57;;;5.40;99.90;;;;;;5002345;28;20203;-78
2021/04/02 04:35:00;;;;;;;7.17;2.47;;;5.50;99.90;;;;;;5000145;28;20207;-77
2021/04/02 04:37:28;;;;;;;9.60;2.93;;;5.50;99.90;;;;;;5001304;28;20192;-77
2021/04/02 04:39:56;;;;;;;12.30;2.87;;;5.50;99.90;;;;;;5020550;28;20195;-77
2021/04/02 04:42:24;;;;;;;7.20;2.30;;;5.50;99.90;;;;;;5019995;28;20218;-75
2021/04/02 04:44:54;;;;;;;9.07;3.47;;;5.50;99.90;;;;;;5020955;28;20289;-76
2021/04/02 04:47:20;;;;;;;9.23;2.73;;;5.50;99.90;;;;;;5020547;28;20544;-75
2021/04/02 04:49:47;;;;;;;11.43;2.90;;;5.50;99.90;;;;;;5020198;28;20293;-77
2021/04/02 04:52:17;;;;;;;8.60;2.50;;;5.50;99.90;;;;;;5021129;28;20219;-76
2021/04/02 04:54:49;;;;;;;11.87;2.70;;;5.50;99.90;;;;;;5010630;28;20215;-76
2021/04/02 04:57:17;;;;;;;8.63;2.63;;;5.40;99.90;;;;;;5000262;28;20242;-77
2021/04/02 04:59:43;;;;;;;9.90;2.53;;;5.50;99.90;;;;;;5018117;28;20253;-76
2021/04/02 05:02:12;;;;;;;5.83;2.10;;;5.60;99.90;;;;;;5019566;28;20223;-77
2021/04/02 05:04:39;;;;;;;9.87;2.80;;;5.60;99.90;;;;;;5023537;28;20462;-77
2021/04/02 05:07:07;;;;;;;8.93;2.37;;;5.60;99.90;;;;;;5027971;28;20883;-77
2021/04/02 05:09:35;;;;;;;8.07;3.03;;;5.70;99.90;;;;;;5043608;28;20199;-77
2021/04/02 05:12:04;;;;;;;8.50;2.63;;;5.60;99.90;;;;;;5043771;28;20221;-77
2021/04/02 05:14:31;;;;;;;6.60;2.23;;;5.70;99.90;;;;;;5043778;28;20263;-78
2021/04/02 05:16:58;;;;;;;7.77;2.80;;;5.70;99.90;;;;;;5027784;28;20211;-77
2021/04/02 05:19:25;;;;;;;5.93;2.13;;;5.70;99.90;;;;;;5023631;28;20202;-76
2021/04/02 05:21:52;;;;;;;6.23;2.63;;;5.70;99.90;;;;;;5023767;28;20226;-77
2021/04/02 05:24:18;;;;;;;9.77;2.23;;;5.80;99.90;;;;;;5023419;28;20250;-77
2021/04/02 05:26:44;;;;;;;8.67;3.47;;;5.80;99.90;;;;;;5022798;28;20326;-77
2021/04/02 05:29:11;;;;;;;8.97;2.50;;;5.70;99.90;;;;;;5022883;28;20346;-78
2021/04/02 05:31:38;;;;;;;6.83;2.70;;;5.70;99.90;;;;;;5021370;28;20218;-78
2021/04/02 05:34:04;;;;;;;10.90;3.90;;;5.80;99.90;;;;;;5023893;28;20199;-78
2021/04/02 05:36:30;;;;;;;8.83;2.23;;;5.80;99.90;;;;;;5023231;28;20203;-78
2021/04/02 05:38:56;;;;;;;9.93;2.60;;;5.80;99.90;;;;;;5017710;28;20215;-77
2021/04/02 05:41:28;;;;;;;10.07;2.60;;;5.80;99.90;;;;;;5003097;28;20238;-77
2021/04/02 05:43:56;;;;;;;11.20;3.43;;;5.80;99.90;;;;;;5020470;28;20267;-77
2021/04/02 05:46:25;;;;;;;10.00;2.63;;;5.90;99.90;;;;;;5022693;28;20214;-76
2021/04/02 05:48:59;;;;;;;11.73;3.40;;;5.90;99.90;;;;;;5023145;28;20210;-77
2021/04/02 05:51:27;;;;;;;13.17;2.70;;;5.90;99.90;;;;;;5022406;28;20225;-77
2021/04/02 05:53:55;;;;;;;9.53;3.70;;;5.90;99.90;;;;;;5023096;28;20260;-76
2021/04/02 05:56:21;;;;;;;9.03;2.97;;;6.00;99.90;;;;;;5022997;28;20325;-77
2021/04/02 05:58:48;;;;;;;11.53;2.50;;;6.00;99.90;;;;;;5022856;28;20203;-76
2021/04/02 06:01:15;;;;;;;5.90;2.50;;;6.00;99.90;;;;;;5021861;28;20650;-76
2021/04/02 06:03:43;;;;;;;11.43;3.90;;;6.00;99.90;;;;;;5006434;28;20215;-77
2021/04/02 06:06:13;;;;;;;8.77;2.20;;;6.00;99.90;;;;;;5002305;28;20215;-77
2021/04/02 06:08:42;;;;;;;10.00;3.23;;;6.00;99.90;;;;;;5028539;28;20206;-76
2021/04/02 06:11:09;;;;;;;8.80;3.53;;;6.00;99.90;;;;;;5023025;28;20198;-78
2021/04/02 06:13:35;;;;;;;9.93;2.33;;;6.00;99.90;;;;;;5021964;28;20203;-77
2021/04/02 06:16:02;;;;;;;11.03;3.43;;;6.00;99.90;;;;;;5022351;28;20742;-77
2021/04/02 06:18:28;;;;;;;7.90;2.50;;;6.00;99.90;;;;;;5021742;28;20210;-77
2021/04/02 06:20:56;;;;;;;6.97;2.10;;;6.10;99.90;;;;;;5021808;28;20198;-77
2021/04/02 06:23:24;;;;;;;7.07;2.50;;;6.10;99.90;;;;;;5022334;28;20256;-77
2021/04/02 06:25:52;;;;;;;7.27;2.20;;;6.10;99.90;;;;;;5022200;28;20288;-77
2021/04/02 06:28:23;;;;;;;5.83;2.20;;;6.20;99.90;;;;;;5022139;28;20206;-77
2021/04/02 06:30:58;;;;;;;9.77;2.47;;;6.20;99.90;;;;;;5022256;28;20207;-78
2021/04/02 06:33:31;;;;;;;9.03;3.00;;;6.20;99.90;;;;;;5022122;28;20202;-78
2021/04/02 06:35:59;;;;;;;11.00;2.80;;;6.30;99.90;;;;;;5021866;28;20317;-78
2021/04/02 06:38:32;;;;;;;6.43;2.00;;;6.40;99.90;;;;;;5021888;28;20277;-78
2021/04/02 06:41:01;;;;;;;10.13;2.10;;;6.40;99.90;;;;;;5021978;28;20218;-78
2021/04/02 06:43:44;;;;;;;6.97;1.97;;;6.30;99.90;;;;;;4978250;28;20909;-78
2021/04/02 06:46:12;;;;;;;10.13;2.67;;;6.40;99.90;;;;;;5021987;28;20295;-79
2021/04/02 06:48:39;;;;;;;7.87;2.33;;;6.40;99.90;;;;;;5021018;28;20260;-78
2021/04/02 06:51:13;;;;;;;15.53;2.50;;;6.50;99.90;;;;;;5021807;28;20214;-78
2021/04/02 06:53:40;;;;;;;6.27;2.30;;;6.50;99.90;;;;;;5020610;28;20343;-78
2021/04/02 06:56:10;;;;;;;10.13;2.63;;;6.40;99.90;;;;;;5001587;28;20239;-76
2021/04/02 06:58:38;;;;;;;7.23;2.80;;;6.50;99.90;;;;;;5011249;28;20232;-79
2021/04/02 07:01:06;;;;;;;11.10;3.17;;;6.60;99.90;;;;;;5017771;28;20549;-78
2021/04/02 07:03:33;;;;;;;6.07;2.27;;;6.60;99.90;;;;;;5021083;28;20202;-78
2021/04/02 07:06:02;;;;;;;8.93;2.50;;;6.50;99.90;;;;;;5019145;28;20207;-77
2021/04/02 07:08:31;;;;;;;5.23;2.67;;;6.50;99.90;;;;;;5034984;28;20213;-77
2021/04/02 07:10:58;;;;;;;11.83;4.37;;;6.40;99.90;;;;;;5042158;28;20212;-77
2021/04/02 07:13:25;;;;;;;7.20;2.77;;;6.50;99.90;;;;;;5025930;28;20218;-77
2021/04/02 07:15:52;;;;;;;6.90;2.00;;;6.50;99.90;;;;;;5020910;28;20606;-78
2021/04/02 07:18:19;;;;;;;8.70;2.20;;;6.50;99.90;;;;;;5021476;28;20213;-76
2021/04/02 07:20:48;;;;;;;7.07;1.90;;;6.50;99.90;;;;;;5021319;28;20206;-76
2021/04/02 07:23:15;;;;;;;14.13;2.13;;;6.60;99.90;;;;;;5001024;28;20338;-77
2021/04/02 07:25:43;;;;;;;6.27;1.70;;;6.60;99.90;;;;;;5001249;28;20207;-77
2021/04/02 07:28:09;;;;;;;6.23;1.73;;;6.70;99.90;;;;;;5002192;28;20203;-77
2021/04/02 07:30:36;;;;;;;11.97;2.30;;;6.60;99.90;;;;;;5021101;28;20206;-77
2021/04/02 07:33:06;;;;;;;7.50;2.20;;;6.60;99.90;;;;;;5021836;28;20194;-78
2021/04/02 07:35:33;;;;;;;8.10;1.93;;;6.60;99.90;;;;;;5021573;28;20202;-77
2021/04/02 07:38:00;;;;;;;7.13;2.40;;;6.60;99.90;;;;;;5019816;28;20758;-77
2021/04/02 07:40:29;;;;;;;8.87;2.27;;;6.70;99.90;;;;;;5021432;28;20206;-78
2021/04/02 07:42:59;;;;;;;6.67;1.83;;;6.70;99.90;;;;;;5020485;28;20223;-76
2021/04/02 07:45:29;;;;;;;10.57;2.07;;;6.70;99.90;;;;;;5020869;28;20206;-78
2021/04/02 07:48:09;;;;;;;12.07;2.33;;;6.70;99.90;;;;;;5020682;28;20300;-76
2021/04/02 07:50:38;;;;;;;10.27;2.47;;;6.80;99.90;;;;;;5021050;28;20317;-76
2021/04/02 07:53:05;;;;;;;5.73;2.27;;;6.80;99.90;;;;;;5020570;28;20265;-77
2021/04/02 07:55:31;;;;;;;8.50;2.10;;;6.80;99.90;;;;;;5020395;28;20265;-78
2021/04/02 07:58:01;;;;;;;8.00;1.70;;;6.90;99.90;;;;;;5019772;28;20198;-79
2021/04/02 08:00:29;;;;;;;10.40;3.43;;;7.00;99.90;;;;;;5020856;28;20202;-78
2021/04/02 08:03:14;;;;;;;9.20;2.30;;;7.10;99.90;;;;;;5020339;28;20238;-78
2021/04/02 08:05:46;;;;;;;8.27;2.20;;;7.00;99.90;;;;;;5019511;28;20716;-78
2021/04/02 08:08:16;;;;;;;8.53;2.03;;;7.00;99.90;;;;;;5035269;28;20333;-76
2021/04/02 08:11:01;;;;;;;8.27;1.90;;;7.00;99.90;;;;;;5031695;28;20198;-76
2021/04/02 08:13:28;;;;;;;12.23;2.80;;;7.10;99.90;;;;;;5020550;28;20261;-76
2021/04/02 08:15:57;;;;;;;11.67;2.93;;;7.10;99.90;;;;;;5020062;28;20217;-76
2021/04/02 08:18:26;;;;;;;8.33;1.77;;;7.20;99.90;;;;;;5020978;28;20205;-78
2021/04/02 08:20:55;;;;;;;6.83;1.93;;;7.30;99.90;;;;;;5020155;28;20253;-78
2021/04/02 08:23:23;;;;;;;10.63;1.63;;;7.30;99.90;;;;;;5019545;28;20392;-76
2021/04/02 08:25:54;;;;;;;9.60;1.60;;;7.30;99.90;;;;;;5020332;28;20246;-78
2021/04/02 08:28:24;;;;;;;11.20;1.83;;;7.30;99.90;;;;;;5020846;28;20635;-77
2021/04/02 08:30:53;;;;;;;11.53;2.30;;;7.30;99.90;;;;;;5020965;28;20214;-78
2021/04/02 08:33:20;;;;;;;12.20;1.93;;;7.30;99.90;;;;;;5020208;28;20810;-77
2021/04/02 08:35:47;;;;;;;8.23;1.63;;;7.30;99.90;;;;;;5020713;28;20214;-77
2021/04/02 08:38:13;;;;;;;7.43;1.50;;;7.30;99.90;;;;;;5022245;28;20297;-78
2021/04/02 08:40:39;;;;;;;11.50;1.63;;;7.40;99.90;;;;;;5023170;28;20211;-78
2021/04/02 08:43:10;;;;;;;7.57;1.83;;;7.50;99.90;;;;;;5022664;28;20258;-79
2021/04/02 08:45:38;;;;;;;8.10;2.77;;;7.60;99.90;;;;;;5022995;28;20301;-76
2021/04/02 08:48:06;;;;;;;7.77;1.63;;;7.60;99.90;;;;;;5004378;28;20214;-78
2021/04/02 08:50:33;;;;;;;8.07;1.50;;;7.60;99.90;;;;;;5011716;28;20214;-77
2021/04/02 08:53:04;;;;;;;9.23;2.10;;;7.70;99.90;;;;;;5024437;28;20225;-78
2021/04/02 08:55:32;;;;;;;9.60;2.00;;;7.60;99.90;;;;;;5023386;28;20214;-76
2021/04/02 08:57:58;;;;;;;12.47;2.30;;;7.60;99.90;;;;;;5023833;28;20198;-78
2021/04/02 09:00:25;;;;;;;8.17;1.87;;;7.60;99.90;;;;;;5023390;28;20214;-76
2021/04/02 09:02:53;;;;;;;13.27;3.00;;;7.60;99.90;;;;;;5023608;28;20228;-77
2021/04/02 09:05:20;;;;;;;10.30;2.40;;;7.60;99.90;;;;;;5023977;28;20206;-76
2021/04/02 09:07:47;;;;;;;14.03;2.80;;;7.60;99.90;;;;;;5019400;28;20216;-76
2021/04/02 09:10:15;;;;;;;11.30;2.67;;;7.70;99.90;;;;;;5003808;28;20211;-77
2021/04/02 09:12:45;;;;;;;8.87;1.80;;;7.70;99.90;;;;;;5004171;28;20206;-76
2021/04/02 09:15:23;;;;;;;6.43;1.27;;;7.70;99.90;;;;;;5008720;28;20199;-77
2021/04/02 09:17:49;;;;;;;13.73;2.80;;;7.80;99.90;;;;;;5024530;28;20198;-76
2021/04/02 09:20:19;;;;;;;7.80;1.60;;;7.80;99.90;;;;;;5023353;28;20244;-77
2021/04/02 09:22:47;;;;;;;7.77;2.67;;;7.80;99.90;;;;;;5017468;28;20284;-76
2021/04/02 09:25:15;;;;;;;11.93;2.37;;;7.80;99.90;;;;;;5023875;28;20248;-75
2021/04/02 09:27:41;;;;;;;6.83;2.00;;;7.90;99.90;;;;;;5024128;28;20210;-76
2021/04/02 09:30:09;;;;;;;7.93;2.27;;;7.90;99.90;;;;;;5023395;28;20210;-77
2021/04/02 09:32:36;;;;;;;6.10;2.10;;;7.90;99.90;;;;;;5023906;28;20261;-76
2021/04/02 09:35:05;;;;;;;6.73;1.83;;;7.90;99.90;;;;;;5006444;28;20211;-77
2021/04/02 09:37:33;;;;;;;5.57;1.87;;;8.00;99.90;;;;;;5002907;28;20619;-77
2021/04/02 09:40:02;;;;;;;12.50;2.50;;;8.00;99.90;;;;;;5003812;28;20204;-77
2021/04/02 09:42:32;;;;;;;10.70;2.77;;;8.10;99.90;;;;;;5003581;28;20227;-77
2021/04/02 09:45:03;;;;;;;10.03;2.23;;;8.10;99.90;;;;;;5003679;28;20955;-75
2021/04/02 09:47:30;;;;;;;10.07;3.50;;;8.10;99.90;;;;;;5003555;28;20195;-77
2021/04/02 09:49:57;;;;;;;10.20;2.20;;;8.20;99.90;;;;;;5021483;28;20207;-78
2021/04/02 09:52:23;;;;;;;8.17;2.50;;;8.20;99.90;;;;;;5022558;28;20219;-77
2021/04/02 09:54:50;;;;;;;9.97;2.33;;;8.20;99.90;;;;;;5020759;28;20636;-78
2021/04/02 09:57:18;;;;;;;9.50;1.83;;;8.30;99.90;;;;;;5020499;28;20272;-77
2021/04/02 09:59:44;;;;;;;5.03;2.40;;;8.30;99.90;;;;;;5022743;28;20191;-78
2021/04/02 10:02:10;;;;;;;9.50;2.23;;;8.40;99.90;;;;;;5022221;28;20591;-79
2021/04/02 10:04:37;;;;;;;7.47;1.83;;;8.40;99.90;;;;;;5020414;28;20195;-77
2021/04/02 10:07:03;;;;;;;12.30;2.37;;;8.40;99.90;;;;;;5016332;28;20779;-77
2021/04/02 10:09:29;;;;;;;9.33;2.87;;;8.40;99.90;;;;;;5041851;28;20521;-78
2021/04/02 10:11:56;;;;;;;16.87;3.07;;;8.40;99.90;;;;;;5040486;28;20198;-79
2021/04/02 10:14:23;;;;;;;10.83;2.17;;;8.50;99.90;;;;;;5042122;28;20820;-77
2021/04/02 10:16:49;;;;;;;14.97;2.00;;;8.60;99.90;;;;;;5023132;28;20210;-78
2021/04/02 10:19:16;;;;;;;11.93;2.50;;;8.50;99.90;;;;;;5021438;28;20203;-77
2021/04/02 10:21:43;;;;;;;15.63;3.13;;;8.60;99.90;;;;;;5021718;28;20641;-78
2021/04/02 10:24:10;;;;;;;10.40;3.00;;;8.70;99.90;;;;;;5022206;28;20203;-77
2021/04/02 10:26:37;;;;;;;10.70;2.10;;;8.60;99.90;;;;;;5021353;28;20203;-77
2021/04/02 10:29:04;;;;;;;10.83;4.10;;;8.50;99.90;;;;;;5017349;28;21043;-77
2021/04/02 10:31:31;;;;;;;10.90;2.57;;;8.50;99.90;;;;;;5002660;28;20211;-78
2021/04/02 10:33:57;;;;;;;13.50;2.77;;;8.50;99.90;;;;;;5001427;28;20207;-78
2021/04/02 10:36:24;;;;;;;9.87;2.47;;;8.60;99.90;;;;;;5008743;28;20202;-78
2021/04/02 10:38:50;;;;;;;14.07;2.47;;;8.60;99.90;;;;;;5021831;28;20211;-77
2021/04/02 10:41:17;;;;;;;11.73;2.83;;;8.40;99.90;;;;;;5021179;28;20511;-79
2021/04/02 10:43:43;;;;;;;10.63;2.10;;;8.40;99.90;;;;;;5020728;28;20202;-78
2021/04/02 10:46:11;;;;;;;13.27;2.70;;;8.40;99.90;;;;;;5021078;28;20209;-78
2021/04/02 10:48:39;;;;;;;7.30;1.93;;;8.40;99.90;;;;;;5019845;28;20248;-79
2021/04/02 10:51:06;;;;;;;13.80;3.37;;;8.40;99.90;;;;;;5022118;28;20198;-76
2021/04/02 10:53:33;;;;;;;6.50;2.10;;;8.50;99.90;;;;;;5026724;28;20207;-77
2021/04/02 10:56:00;;;;;;;12.90;2.17;;;8.50;99.90;;;;;;5021704;28;20256;-78
2021/04/02 10:58:27;;;;;;;7.17;1.97;;;8.50;99.90;;;;;;5021226;28;20232;-77
2021/04/02 11:00:53;;;;;;;11.27;2.50;;;8.60;99.90;;;;;;5021438;28;20203;-78
2021/04/02 11:03:19;;;;;;;15.67;3.60;;;8.60;99.90;;;;;;5021834;28;20227;-79
2021/04/02 11:05:47;;;;;;;16.67;2.20;;;8.60;99.90;;;;;;5020715;28;20210;-76
2021/04/02 11:08:13;;;;;;;11.67;2.30;;;8.60;99.90;;;;;;5021410;28;20195;-78
2021/04/02 11:10:39;;;;;;;13.77;2.47;;;8.60;99.90;;;;;;5022420;28;20610;-80
2021/04/02 11:13:06;;;;;;;16.47;2.47;;;8.60;99.90;;;;;;5021701;28;20198;-77
2021/04/02 11:15:32;;;;;;;10.50;2.17;;;8.60;99.90;;;;;;5003021;28;20280;-77
2021/04/02 11:17:58;;;;;;;11.77;2.73;;;8.60;99.90;;;;;;5020634;28;20214;-78
2021/04/02 11:20:28;;;;;;;9.77;2.87;;;8.50;99.90;;;;;;5025575;28;20577;-79
2021/04/02 11:22:56;;;;;;;9.03;2.37;;;8.60;99.90;;;;;;5022632;28;20242;-77
2021/04/02 11:25:22;;;;;;;12.20;2.50;;;8.50;99.90;;;;;;5020421;28;20222;-79
2021/04/02 11:27:49;;;;;;;5.60;1.83;;;8.50;99.90;;;;;;5021926;28;20207;-76
2021/04/02 11:30:17;;;;;;;8.00;2.10;;;8.50;99.90;;;;;;5017432;28;20300;-77
2021/04/02 11:32:44;;;;;;;7.93;1.90;;;8.50;99.90;;;;;;5024101;28;20290;-74
2021/04/02 11:35:12;;;;;;;7.90;2.37;;;8.60;99.90;;;;;;5019197;28;20716;-78
2021/04/02 11:37:39;;;;;;;9.03;2.13;;;8.70;99.90;;;;;;5017544;28;20272;-77
2021/04/02 11:40:10;;;;;;;6.47;2.33;;;8.70;99.90;;;;;;5020755;28;20681;-79
2021/04/02 11:42:36;;;;;;;8.00;2.53;;;8.80;99.90;;;;;;5021601;28;20230;-79
2021/04/02 11:45:04;;;;;;;13.83;2.47;;;8.70;99.90;;;;;;5020188;28;20210;-79
2021/04/02 11:47:30;;;;;;;10.00;2.73;;;8.60;99.90;;;;;;5020009;28;20206;-79
2021/04/02 11:49:57;;;;;;;8.70;1.83;;;8.50;99.90;;;;;;5020805;28;20214;-77
2021/04/02 11:52:23;;;;;;;6.23;1.83;;;8.60;99.90;;;;;;5019417;28;20226;-79
2021/04/02 11:54:50;;;;;;;15.67;3.53;;;8.50;99.90;;;;;;5021702;28;20219;-79
2021/04/02 11:57:18;;;;;;;12.37;3.17;;;8.50;99.90;;;;;;5000507;28;20442;-79
2021/04/02 11:59:44;;;;;;;9.03;2.47;;;8.60;99.90;;;;;;5016386;28;20336;-81
2021/04/02 12:02:11;;;;;;;6.67;1.60;;;8.70;99.90;;;;;;5020448;28;21076;-80
2021/04/02 12:04:37;;;;;;;11.23;2.70;;;8.70;99.90;;;;;;5020552;28;20217;-78
2021/04/02 12:07:04;;;;;;;7.00;2.20;;;8.70;99.90;;;;;;5016766;28;20207;-79
2021/04/02 12:09:30;;;;;;;9.00;2.27;;;8.70;99.90;;;;;;5001442;28;20215;-78
2021/04/02 12:11:56;;;;;;;10.70;1.93;;;8.60;99.90;;;;;;5002004;28;20206;-79
2021/04/02 12:14:24;;;;;;;12.10;2.10;;;8.50;99.90;;;;;;5004420;28;20563;-80
2021/04/02 12:16:50;;;;;;;8.07;1.90;;;8.60;99.90;;;;;;5005671;28;20213;-80
2021/04/02 12:19:16;;;;;;;8.30;1.90;;;8.70;99.90;;;;;;5014919;28;20377;-80
2021/04/02 12:21:43;;;;;;;7.97;2.67;;;8.70;99.90;;;;;;5024728;28;20222;-79
2021/04/02 12:24:09;;;;;;;14.03;2.67;;;8.80;99.90;;;;;;5025577;28;20586;-79
2021/04/02 12:26:36;;;;;;;9.57;1.87;;;8.80;99.90;;;;;;5025541;28;20202;-81
2021/04/02 12:29:03;;;;;;;14.03;1.67;;;8.70;99.90;;;;;;5024607;28;20332;-77
2021/04/02 12:31:30;;;;;;;6.87;1.73;;;8.70;99.90;;;;;;5025046;28;20206;-80
2021/04/02 12:33:57;;;;;;;7.47;1.57;;;8.80;99.90;;;;;;5024379;28;20198;-79
2021/04/02 12:36:23;;;;;;;7.30;2.33;;;8.80;99.90;;;;;;5024707;28;20249;-80
2021/04/02 12:38:49;;;;;;;7.27;2.23;;;8.80;99.90;;;;;;5024612;28;20645;-80
2021/04/02 12:41:16;;;;;;;7.03;1.83;;;8.90;99.90;;;;;;5024028;28;20256;-80
2021/04/02 12:43:42;;;;;;;10.17;1.90;;;9.00;99.90;;;;;;5025104;28;20268;-79
2021/04/02 12:46:08;;;;;;;15.43;2.33;;;9.10;99.90;;;;;;5023521;28;20273;-79
2021/04/02 12:48:35;;;;;;;6.43;2.37;;;9.10;99.90;;;;;;5024930;28;20210;-81
2021/04/02 12:51:02;;;;;;;6.53;1.90;;;9.20;99.90;;;;;;5024723;28;20509;-80
2021/04/02 12:53:30;;;;;;;7.60;1.53;;;9.10;99.90;;;;;;5029189;28;20309;-79
2021/04/02 12:55:59;;;;;;;13.10;2.77;;;9.20;99.90;;;;;;5020735;28;20243;-78
2021/04/02 12:58:25;;;;;;;10.23;2.10;;;9.10;99.90;;;;;;5005670;28;20195;-81
2021/04/02 13:00:52;;;;;;;10.30;1.73;;;9.10;99.90;;;;;;5021364;28;20207;-76
2021/04/02 13:03:18;;;;;;;9.67;1.70;;;9.00;99.90;;;;;;5024535;28;20998;-80
2021/04/02 13:05:45;;;;;;;3.57;1.50;;;9.10;99.90;;;;;;5024008;28;20198;-80